sensor_id;sensor_type;location;lat;lon;timestamp;P1;durP1;ratioP1;P2;durP2;ratioP2
53875;SDS011;39789;53.216;5.624;2024-01-11T00:00:30;29.07;;;24.03;;
53875;SDS011;39789;53.216;5.624;2024-01-11T00:02:56;27.40;;;18.20;;
53875;SDS011;39789;53.216;5.624;2024-01-11T00:05:21;28.93;;;24.90;;
53875;SDS011;39789;53.216;5.624;2024-01-11T00:07:47;28.90;;;24.80;;
53875;SDS011;39789;53.216;5.624;2024-01-11T00:10:13;32.13;;;25.87;;
53875;SDS011;39789;53.216;5.624;2024-01-11T00:12:39;31.43;;;25.27;;
53875;SDS011;39789;53.216;5.624;2024-01-11T00:15:05;32.20;;;24.97;;
53875;SDS011;39789;53.216;5.624;2024-01-11T00:17:31;31.33;;;25.77;;
53875;SDS011;39789;53.216;5.624;2024-01-11T00:19:58;29.67;;;24.77;;
53875;SDS011;39789;53.216;5.624;2024-01-11T00:22:24;32.83;;;25.37;;
53875;SDS011;39789;53.216;5.624;2024-01-11T00:24:50;30.40;;;25.47;;
53875;SDS011;39789;53.216;5.624;2024-01-11T00:27:15;30.03;;;24.43;;
53875;SDS011;39789;53.216;5.624;2024-01-11T00:29:41;32.23;;;25.60;;
53875;SDS011;39789;53.216;5.624;2024-01-11T00:32:07;22.87;;;14.60;;
53875;SDS011;39789;53.216;5.624;2024-01-11T00:34:32;35.13;;;26.37;;
53875;SDS011;39789;53.216;5.624;2024-01-11T00:36:58;31.23;;;27.53;;
53875;SDS011;39789;53.216;5.624;2024-01-11T00:39:24;31.57;;;26.43;;
53875;SDS011;39789;53.216;5.624;2024-01-11T00:41:49;33.10;;;26.93;;
53875;SDS011;39789;53.216;5.624;2024-01-11T00:44:16;33.03;;;26.70;;
53875;SDS011;39789;53.216;5.624;2024-01-11T00:46:42;33.00;;;28.07;;
53875;SDS011;39789;53.216;5.624;2024-01-11T00:49:07;33.73;;;28.17;;
53875;SDS011;39789;53.216;5.624;2024-01-11T00:51:33;35.97;;;29.07;;
53875;SDS011;39789;53.216;5.624;2024-01-11T00:53:59;32.93;;;27.03;;
53875;SDS011;39789;53.216;5.624;2024-01-11T00:56:24;33.67;;;27.47;;
53875;SDS011;39789;53.216;5.624;2024-01-11T00:58:51;33.37;;;28.90;;
53875;SDS011;39789;53.216;5.624;2024-01-11T01:01:17;33.53;;;27.77;;
53875;SDS011;39789;53.216;5.624;2024-01-11T01:03:43;33.30;;;29.37;;
53875;SDS011;39789;53.216;5.624;2024-01-11T01:06:09;35.63;;;29.07;;
53875;SDS011;39789;53.216;5.624;2024-01-11T01:08:35;34.13;;;28.40;;
53875;SDS011;39789;53.216;5.624;2024-01-11T01:11:00;32.37;;;27.10;;
53875;SDS011;39789;53.216;5.624;2024-01-11T01:13:26;32.10;;;20.30;;
53875;SDS011;39789;53.216;5.624;2024-01-11T01:15:52;34.23;;;28.00;;
53875;SDS011;39789;53.216;5.624;2024-01-11T01:18:17;32.43;;;26.57;;
53875;SDS011;39789;53.216;5.624;2024-01-11T01:20:43;34.83;;;27.47;;
53875;SDS011;39789;53.216;5.624;2024-01-11T01:23:09;32.83;;;27.77;;
53875;SDS011;39789;53.216;5.624;2024-01-11T01:25:34;36.47;;;29.40;;
53875;SDS011;39789;53.216;5.624;2024-01-11T01:28:00;36.77;;;31.00;;
53875;SDS011;39789;53.216;5.624;2024-01-11T01:30:26;34.43;;;27.87;;
53875;SDS011;39789;53.216;5.624;2024-01-11T01:32:52;33.37;;;25.57;;
53875;SDS011;39789;53.216;5.624;2024-01-11T01:35:18;36.23;;;28.03;;
53875;SDS011;39789;53.216;5.624;2024-01-11T01:37:44;34.83;;;29.07;;
53875;SDS011;39789;53.216;5.624;2024-01-11T01:40:10;34.07;;;27.63;;
53875;SDS011;39789;53.216;5.624;2024-01-11T01:42:40;34.63;;;28.97;;
53875;SDS011;39789;53.216;5.624;2024-01-11T01:45:10;31.43;;;27.63;;
53875;SDS011;39789;53.216;5.624;2024-01-11T01:47:36;35.67;;;28.93;;
53875;SDS011;39789;53.216;5.624;2024-01-11T01:50:05;35.50;;;30.53;;
53875;SDS011;39789;53.216;5.624;2024-01-11T01:52:32;37.80;;;31.93;;
53875;SDS011;39789;53.216;5.624;2024-01-11T01:54:59;38.33;;;30.53;;
53875;SDS011;39789;53.216;5.624;2024-01-11T01:57:26;38.20;;;31.30;;
53875;SDS011;39789;53.216;5.624;2024-01-11T01:59:52;37.97;;;30.10;;
53875;SDS011;39789;53.216;5.624;2024-01-11T02:02:19;38.97;;;31.13;;
53875;SDS011;39789;53.216;5.624;2024-01-11T02:04:46;40.53;;;32.60;;
53875;SDS011;39789;53.216;5.624;2024-01-11T02:07:11;38.60;;;31.37;;
53875;SDS011;39789;53.216;5.624;2024-01-11T02:09:38;38.77;;;32.23;;
53875;SDS011;39789;53.216;5.624;2024-01-11T02:12:04;41.50;;;33.57;;
53875;SDS011;39789;53.216;5.624;2024-01-11T02:14:31;39.67;;;32.23;;
53875;SDS011;39789;53.216;5.624;2024-01-11T02:16:57;41.07;;;33.33;;
53875;SDS011;39789;53.216;5.624;2024-01-11T02:19:23;40.30;;;32.10;;
53875;SDS011;39789;53.216;5.624;2024-01-11T02:21:49;39.77;;;32.40;;
53875;SDS011;39789;53.216;5.624;2024-01-11T02:24:18;44.37;;;35.43;;
53875;SDS011;39789;53.216;5.624;2024-01-11T02:27:00;43.83;;;34.23;;
53875;SDS011;39789;53.216;5.624;2024-01-11T02:29:28;43.47;;;33.93;;
53875;SDS011;39789;53.216;5.624;2024-01-11T02:31:54;42.10;;;34.67;;
53875;SDS011;39789;53.216;5.624;2024-01-11T02:34:26;42.77;;;33.13;;
53875;SDS011;39789;53.216;5.624;2024-01-11T02:36:52;41.90;;;33.80;;
53875;SDS011;39789;53.216;5.624;2024-01-11T02:39:19;42.67;;;33.47;;
53875;SDS011;39789;53.216;5.624;2024-01-11T02:41:45;42.77;;;34.27;;
53875;SDS011;39789;53.216;5.624;2024-01-11T02:44:11;40.93;;;33.13;;
53875;SDS011;39789;53.216;5.624;2024-01-11T02:46:37;40.93;;;33.77;;
53875;SDS011;39789;53.216;5.624;2024-01-11T02:49:02;39.40;;;31.93;;
53875;SDS011;39789;53.216;5.624;2024-01-11T02:51:28;41.17;;;32.43;;
53875;SDS011;39789;53.216;5.624;2024-01-11T02:53:54;40.47;;;31.47;;
53875;SDS011;39789;53.216;5.624;2024-01-11T02:56:19;41.20;;;32.17;;
53875;SDS011;39789;53.216;5.624;2024-01-11T02:58:45;39.00;;;31.83;;
53875;SDS011;39789;53.216;5.624;2024-01-11T03:01:11;40.30;;;33.40;;
53875;SDS011;39789;53.216;5.624;2024-01-11T03:03:36;42.40;;;32.43;;
53875;SDS011;39789;53.216;5.624;2024-01-11T03:06:02;39.03;;;32.87;;
53875;SDS011;39789;53.216;5.624;2024-01-11T03:08:28;43.50;;;33.33;;
53875;SDS011;39789;53.216;5.624;2024-01-11T03:10:54;43.00;;;33.80;;
53875;SDS011;39789;53.216;5.624;2024-01-11T03:13:20;43.00;;;34.87;;
53875;SDS011;39789;53.216;5.624;2024-01-11T03:15:46;35.70;;;30.03;;
53875;SDS011;39789;53.216;5.624;2024-01-11T03:18:11;42.47;;;34.30;;
53875;SDS011;39789;53.216;5.624;2024-01-11T03:20:37;32.47;;;20.27;;
53875;SDS011;39789;53.216;5.624;2024-01-11T03:23:03;39.17;;;31.63;;
53875;SDS011;39789;53.216;5.624;2024-01-11T03:25:31;41.53;;;33.47;;
53875;SDS011;39789;53.216;5.624;2024-01-11T03:27:57;40.87;;;33.47;;
53875;SDS011;39789;53.216;5.624;2024-01-11T03:30:24;41.60;;;32.20;;
53875;SDS011;39789;53.216;5.624;2024-01-11T03:32:49;39.80;;;32.30;;
53875;SDS011;39789;53.216;5.624;2024-01-11T03:35:15;40.87;;;31.87;;
53875;SDS011;39789;53.216;5.624;2024-01-11T03:37:42;42.60;;;33.60;;
53875;SDS011;39789;53.216;5.624;2024-01-11T03:40:08;38.60;;;32.10;;
53875;SDS011;39789;53.216;5.624;2024-01-11T03:42:34;43.30;;;31.43;;
53875;SDS011;39789;53.216;5.624;2024-01-11T03:45:00;38.73;;;31.77;;
53875;SDS011;39789;53.216;5.624;2024-01-11T03:47:26;37.63;;;32.50;;
53875;SDS011;39789;53.216;5.624;2024-01-11T03:49:51;40.13;;;31.30;;
53875;SDS011;39789;53.216;5.624;2024-01-11T03:52:17;38.70;;;31.27;;
53875;SDS011;39789;53.216;5.624;2024-01-11T03:54:42;38.07;;;32.00;;
53875;SDS011;39789;53.216;5.624;2024-01-11T03:57:08;41.00;;;32.83;;
53875;SDS011;39789;53.216;5.624;2024-01-11T03:59:34;37.10;;;31.87;;
53875;SDS011;39789;53.216;5.624;2024-01-11T04:02:00;38.47;;;31.37;;
53875;SDS011;39789;53.216;5.624;2024-01-11T04:04:26;39.00;;;32.13;;
53875;SDS011;39789;53.216;5.624;2024-01-11T04:06:51;38.50;;;31.97;;
53875;SDS011;39789;53.216;5.624;2024-01-11T04:09:17;39.83;;;33.00;;
53875;SDS011;39789;53.216;5.624;2024-01-11T04:11:45;40.53;;;34.07;;
53875;SDS011;39789;53.216;5.624;2024-01-11T04:14:11;39.57;;;30.97;;
53875;SDS011;39789;53.216;5.624;2024-01-11T04:16:40;40.30;;;33.30;;
53875;SDS011;39789;53.216;5.624;2024-01-11T04:19:07;44.40;;;33.77;;
53875;SDS011;39789;53.216;5.624;2024-01-11T04:21:33;41.23;;;33.60;;
53875;SDS011;39789;53.216;5.624;2024-01-11T04:23:58;40.83;;;32.93;;
53875;SDS011;39789;53.216;5.624;2024-01-11T04:26:25;38.83;;;32.33;;
53875;SDS011;39789;53.216;5.624;2024-01-11T04:28:51;37.57;;;32.23;;
53875;SDS011;39789;53.216;5.624;2024-01-11T04:31:18;40.40;;;32.03;;
53875;SDS011;39789;53.216;5.624;2024-01-11T04:33:44;40.33;;;33.23;;
53875;SDS011;39789;53.216;5.624;2024-01-11T04:36:10;37.67;;;24.53;;
53875;SDS011;39789;53.216;5.624;2024-01-11T04:38:37;37.43;;;31.93;;
53875;SDS011;39789;53.216;5.624;2024-01-11T04:41:07;40.57;;;31.87;;
53875;SDS011;39789;53.216;5.624;2024-01-11T04:43:43;37.70;;;31.60;;
53875;SDS011;39789;53.216;5.624;2024-01-11T04:46:13;38.77;;;30.50;;
53875;SDS011;39789;53.216;5.624;2024-01-11T04:48:43;33.83;;;17.97;;
53875;SDS011;39789;53.216;5.624;2024-01-11T04:51:09;35.57;;;30.33;;
53875;SDS011;39789;53.216;5.624;2024-01-11T04:53:36;38.97;;;32.57;;
53875;SDS011;39789;53.216;5.624;2024-01-11T04:56:03;40.73;;;32.53;;
53875;SDS011;39789;53.216;5.624;2024-01-11T04:58:29;43.17;;;33.87;;
53875;SDS011;39789;53.216;5.624;2024-01-11T05:00:55;41.83;;;34.43;;
53875;SDS011;39789;53.216;5.624;2024-01-11T05:03:20;41.87;;;34.57;;
53875;SDS011;39789;53.216;5.624;2024-01-11T05:05:46;44.10;;;35.97;;
53875;SDS011;39789;53.216;5.624;2024-01-11T05:08:12;42.83;;;34.40;;
53875;SDS011;39789;53.216;5.624;2024-01-11T05:10:38;43.33;;;35.07;;
53875;SDS011;39789;53.216;5.624;2024-01-11T05:13:03;44.13;;;35.10;;
53875;SDS011;39789;53.216;5.624;2024-01-11T05:15:29;39.70;;;33.20;;
53875;SDS011;39789;53.216;5.624;2024-01-11T05:17:55;41.40;;;33.83;;
53875;SDS011;39789;53.216;5.624;2024-01-11T05:20:21;43.70;;;34.87;;
53875;SDS011;39789;53.216;5.624;2024-01-11T05:22:47;44.27;;;35.13;;
53875;SDS011;39789;53.216;5.624;2024-01-11T05:25:13;42.00;;;34.73;;
53875;SDS011;39789;53.216;5.624;2024-01-11T05:27:39;42.23;;;33.87;;
53875;SDS011;39789;53.216;5.624;2024-01-11T05:30:05;42.00;;;33.60;;
53875;SDS011;39789;53.216;5.624;2024-01-11T05:32:31;39.72;;;32.50;;
53875;SDS011;39789;53.216;5.624;2024-01-11T05:34:57;41.70;;;34.47;;
53875;SDS011;39789;53.216;5.624;2024-01-11T05:37:23;41.65;;;34.08;;
53875;SDS011;39789;53.216;5.624;2024-01-11T05:39:49;44.30;;;35.05;;
53875;SDS011;39789;53.216;5.624;2024-01-11T05:42:15;43.92;;;33.80;;
53875;SDS011;39789;53.216;5.624;2024-01-11T05:44:41;40.63;;;33.33;;
53875;SDS011;39789;53.216;5.624;2024-01-11T05:47:07;40.88;;;33.13;;
53875;SDS011;39789;53.216;5.624;2024-01-11T05:49:32;41.17;;;34.42;;
53875;SDS011;39789;53.216;5.624;2024-01-11T05:51:58;43.50;;;34.70;;
53875;SDS011;39789;53.216;5.624;2024-01-11T05:54:24;43.03;;;34.38;;
53875;SDS011;39789;53.216;5.624;2024-01-11T05:56:51;41.92;;;33.05;;
53875;SDS011;39789;53.216;5.624;2024-01-11T05:59:21;43.70;;;34.72;;
53875;SDS011;39789;53.216;5.624;2024-01-11T06:01:47;42.58;;;34.97;;
53875;SDS011;39789;53.216;5.624;2024-01-11T06:04:12;41.08;;;33.10;;
53875;SDS011;39789;53.216;5.624;2024-01-11T06:06:39;41.03;;;33.17;;
53875;SDS011;39789;53.216;5.624;2024-01-11T06:09:05;40.58;;;33.47;;
53875;SDS011;39789;53.216;5.624;2024-01-11T06:11:31;41.53;;;34.10;;
53875;SDS011;39789;53.216;5.624;2024-01-11T06:13:57;42.72;;;34.47;;
53875;SDS011;39789;53.216;5.624;2024-01-11T06:16:23;45.63;;;34.95;;
53875;SDS011;39789;53.216;5.624;2024-01-11T06:18:49;42.20;;;33.92;;
53875;SDS011;39789;53.216;5.624;2024-01-11T06:21:15;44.00;;;35.28;;
53875;SDS011;39789;53.216;5.624;2024-01-11T06:23:43;40.28;;;32.85;;
53875;SDS011;39789;53.216;5.624;2024-01-11T06:26:08;44.70;;;34.65;;
53875;SDS011;39789;53.216;5.624;2024-01-11T06:28:34;42.67;;;34.85;;
53875;SDS011;39789;53.216;5.624;2024-01-11T06:31:00;40.28;;;33.58;;
53875;SDS011;39789;53.216;5.624;2024-01-11T06:33:25;39.58;;;33.20;;
53875;SDS011;39789;53.216;5.624;2024-01-11T06:35:51;40.63;;;34.13;;
53875;SDS011;39789;53.216;5.624;2024-01-11T06:38:17;43.58;;;35.63;;
53875;SDS011;39789;53.216;5.624;2024-01-11T06:40:42;41.63;;;34.25;;
53875;SDS011;39789;53.216;5.624;2024-01-11T06:43:08;41.85;;;35.45;;
53875;SDS011;39789;53.216;5.624;2024-01-11T06:45:34;44.45;;;35.03;;
53875;SDS011;39789;53.216;5.624;2024-01-11T06:48:00;42.88;;;35.40;;
53875;SDS011;39789;53.216;5.624;2024-01-11T06:50:26;39.15;;;32.85;;
53875;SDS011;39789;53.216;5.624;2024-01-11T06:52:51;42.47;;;33.60;;
53875;SDS011;39789;53.216;5.624;2024-01-11T06:55:17;39.92;;;33.38;;
53875;SDS011;39789;53.216;5.624;2024-01-11T06:57:46;43.72;;;34.10;;
53875;SDS011;39789;53.216;5.624;2024-01-11T07:00:13;47.50;;;36.75;;
53875;SDS011;39789;53.216;5.624;2024-01-11T07:02:38;46.35;;;36.60;;
53875;SDS011;39789;53.216;5.624;2024-01-11T07:05:05;42.55;;;35.00;;
53875;SDS011;39789;53.216;5.624;2024-01-11T07:07:31;41.63;;;34.20;;
53875;SDS011;39789;53.216;5.624;2024-01-11T07:09:58;44.83;;;34.60;;
53875;SDS011;39789;53.216;5.624;2024-01-11T07:12:24;41.35;;;34.38;;
53875;SDS011;39789;53.216;5.624;2024-01-11T07:14:50;43.63;;;35.15;;
53875;SDS011;39789;53.216;5.624;2024-01-11T07:17:16;39.45;;;33.70;;
53875;SDS011;39789;53.216;5.624;2024-01-11T07:19:42;38.70;;;33.03;;
53875;SDS011;39789;53.216;5.624;2024-01-11T07:22:08;38.42;;;31.80;;
53875;SDS011;39789;53.216;5.624;2024-01-11T07:24:34;37.35;;;30.75;;
53875;SDS011;39789;53.216;5.624;2024-01-11T07:27:03;38.03;;;31.20;;
53875;SDS011;39789;53.216;5.624;2024-01-11T07:29:35;35.63;;;29.95;;
53875;SDS011;39789;53.216;5.624;2024-01-11T07:32:01;36.05;;;30.67;;
53875;SDS011;39789;53.216;5.624;2024-01-11T07:34:29;37.40;;;31.80;;
53875;SDS011;39789;53.216;5.624;2024-01-11T07:36:55;37.20;;;30.98;;
53875;SDS011;39789;53.216;5.624;2024-01-11T07:39:21;36.85;;;31.55;;
53875;SDS011;39789;53.216;5.624;2024-01-11T07:41:48;39.58;;;30.27;;
53875;SDS011;39789;53.216;5.624;2024-01-11T07:44:14;36.20;;;29.83;;
53875;SDS011;39789;53.216;5.624;2024-01-11T07:46:39;36.70;;;30.73;;
53875;SDS011;39789;53.216;5.624;2024-01-11T07:49:05;36.58;;;30.35;;
53875;SDS011;39789;53.216;5.624;2024-01-11T07:51:32;36.70;;;31.08;;
53875;SDS011;39789;53.216;5.624;2024-01-11T07:53:58;34.45;;;28.75;;
53875;SDS011;39789;53.216;5.624;2024-01-11T07:56:24;35.65;;;27.98;;
53875;SDS011;39789;53.216;5.624;2024-01-11T07:58:49;33.25;;;28.67;;
53875;SDS011;39789;53.216;5.624;2024-01-11T08:01:15;36.35;;;31.30;;
53875;SDS011;39789;53.216;5.624;2024-01-11T08:03:41;34.35;;;29.05;;
53875;SDS011;39789;53.216;5.624;2024-01-11T08:06:10;36.13;;;32.20;;
53875;SDS011;39789;53.216;5.624;2024-01-11T08:08:35;35.00;;;29.52;;
53875;SDS011;39789;53.216;5.624;2024-01-11T08:11:04;36.10;;;29.27;;
53875;SDS011;39789;53.216;5.624;2024-01-11T08:13:33;35.40;;;29.83;;
53875;SDS011;39789;53.216;5.624;2024-01-11T08:16:00;35.75;;;31.83;;
53875;SDS011;39789;53.216;5.624;2024-01-11T08:18:32;36.00;;;30.55;;
53875;SDS011;39789;53.216;5.624;2024-01-11T08:20:58;35.10;;;29.38;;
53875;SDS011;39789;53.216;5.624;2024-01-11T08:23:24;36.35;;;30.60;;
53875;SDS011;39789;53.216;5.624;2024-01-11T08:25:49;35.13;;;28.23;;
53875;SDS011;39789;53.216;5.624;2024-01-11T08:28:15;33.97;;;28.88;;
53875;SDS011;39789;53.216;5.624;2024-01-11T08:30:41;38.58;;;31.80;;
53875;SDS011;39789;53.216;5.624;2024-01-11T08:33:07;34.17;;;28.17;;
53875;SDS011;39789;53.216;5.624;2024-01-11T08:35:34;36.35;;;31.30;;
53875;SDS011;39789;53.216;5.624;2024-01-11T08:38:00;33.50;;;28.00;;
53875;SDS011;39789;53.216;5.624;2024-01-11T08:40:26;36.38;;;30.45;;
53875;SDS011;39789;53.216;5.624;2024-01-11T08:42:52;36.90;;;30.10;;
53875;SDS011;39789;53.216;5.624;2024-01-11T08:45:17;36.10;;;29.35;;
53875;SDS011;39789;53.216;5.624;2024-01-11T08:47:46;38.20;;;31.70;;
53875;SDS011;39789;53.216;5.624;2024-01-11T08:50:13;37.80;;;31.40;;
53875;SDS011;39789;53.216;5.624;2024-01-11T08:52:39;37.70;;;31.42;;
53875;SDS011;39789;53.216;5.624;2024-01-11T08:55:05;39.10;;;31.48;;
53875;SDS011;39789;53.216;5.624;2024-01-11T08:57:31;36.40;;;30.80;;
53875;SDS011;39789;53.216;5.624;2024-01-11T08:59:56;35.03;;;29.33;;
53875;SDS011;39789;53.216;5.624;2024-01-11T09:02:22;35.38;;;29.38;;
53875;SDS011;39789;53.216;5.624;2024-01-11T09:04:48;33.50;;;27.95;;
53875;SDS011;39789;53.216;5.624;2024-01-11T09:07:14;35.97;;;30.20;;
53875;SDS011;39789;53.216;5.624;2024-01-11T09:09:40;36.45;;;29.88;;
53875;SDS011;39789;53.216;5.624;2024-01-11T09:12:06;34.58;;;28.67;;
53875;SDS011;39789;53.216;5.624;2024-01-11T09:14:32;33.33;;;28.70;;
53875;SDS011;39789;53.216;5.624;2024-01-11T09:16:58;29.77;;;26.02;;
53875;SDS011;39789;53.216;5.624;2024-01-11T09:19:23;28.95;;;25.15;;
53875;SDS011;39789;53.216;5.624;2024-01-11T09:21:49;30.15;;;25.50;;
53875;SDS011;39789;53.216;5.624;2024-01-11T09:24:15;34.05;;;27.15;;
53875;SDS011;39789;53.216;5.624;2024-01-11T09:26:40;34.78;;;27.70;;
53875;SDS011;39789;53.216;5.624;2024-01-11T09:29:06;33.95;;;28.15;;
53875;SDS011;39789;53.216;5.624;2024-01-11T09:31:32;34.78;;;26.60;;
53875;SDS011;39789;53.216;5.624;2024-01-11T09:33:57;33.30;;;28.17;;
53875;SDS011;39789;53.216;5.624;2024-01-11T09:36:23;30.55;;;26.00;;
53875;SDS011;39789;53.216;5.624;2024-01-11T09:38:49;31.50;;;26.27;;
53875;SDS011;39789;53.216;5.624;2024-01-11T09:41:14;34.80;;;26.83;;
53875;SDS011;39789;53.216;5.624;2024-01-11T09:43:41;32.15;;;26.55;;
53875;SDS011;39789;53.216;5.624;2024-01-11T09:46:07;31.80;;;26.08;;
53875;SDS011;39789;53.216;5.624;2024-01-11T09:48:35;30.63;;;24.65;;
53875;SDS011;39789;53.216;5.624;2024-01-11T09:51:03;28.77;;;24.30;;
53875;SDS011;39789;53.216;5.624;2024-01-11T09:53:35;28.02;;;24.20;;
53875;SDS011;39789;53.216;5.624;2024-01-11T09:56:04;28.23;;;24.15;;
53875;SDS011;39789;53.216;5.624;2024-01-11T09:58:33;27.08;;;23.02;;
53875;SDS011;39789;53.216;5.624;2024-01-11T10:01:01;28.00;;;22.77;;
53875;SDS011;39789;53.216;5.624;2024-01-11T10:03:27;27.92;;;22.63;;
53875;SDS011;39789;53.216;5.624;2024-01-11T10:05:57;25.95;;;22.08;;
53875;SDS011;39789;53.216;5.624;2024-01-11T10:08:24;29.38;;;22.83;;
53875;SDS011;39789;53.216;5.624;2024-01-11T10:10:51;27.38;;;23.05;;
53875;SDS011;39789;53.216;5.624;2024-01-11T10:13:17;28.27;;;22.35;;
53875;SDS011;39789;53.216;5.624;2024-01-11T10:15:43;22.83;;;20.38;;
53875;SDS011;39789;53.216;5.624;2024-01-11T10:18:11;24.38;;;20.40;;
53875;SDS011;39789;53.216;5.624;2024-01-11T10:20:37;23.10;;;20.25;;
53875;SDS011;39789;53.216;5.624;2024-01-11T10:23:03;26.02;;;18.83;;
53875;SDS011;39789;53.216;5.624;2024-01-11T10:25:29;21.92;;;17.80;;
53875;SDS011;39789;53.216;5.624;2024-01-11T10:27:55;19.02;;;15.90;;
53875;SDS011;39789;53.216;5.624;2024-01-11T10:30:20;15.93;;;13.40;;
53875;SDS011;39789;53.216;5.624;2024-01-11T10:32:47;18.67;;;13.98;;
53875;SDS011;39789;53.216;5.624;2024-01-11T10:35:13;17.70;;;13.27;;
53875;SDS011;39789;53.216;5.624;2024-01-11T10:37:39;16.45;;;12.50;;
53875;SDS011;39789;53.216;5.624;2024-01-11T10:40:08;14.20;;;11.55;;
53875;SDS011;39789;53.216;5.624;2024-01-11T10:42:35;12.35;;;10.65;;
53875;SDS011;39789;53.216;5.624;2024-01-11T10:45:04;13.63;;;9.45;;
53875;SDS011;39789;53.216;5.624;2024-01-11T10:47:35;12.05;;;8.13;;
53875;SDS011;39789;53.216;5.624;2024-01-11T10:50:03;12.10;;;7.78;;
53875;SDS011;39789;53.216;5.624;2024-01-11T10:52:33;11.50;;;7.38;;
53875;SDS011;39789;53.216;5.624;2024-01-11T10:55:05;10.05;;;6.55;;
53875;SDS011;39789;53.216;5.624;2024-01-11T10:57:31;7.28;;;4.93;;
53875;SDS011;39789;53.216;5.624;2024-01-11T10:59:58;7.70;;;4.47;;
53875;SDS011;39789;53.216;5.624;2024-01-11T11:02:28;11.52;;;4.30;;
53875;SDS011;39789;53.216;5.624;2024-01-11T11:04:54;8.30;;;3.78;;
53875;SDS011;39789;53.216;5.624;2024-01-11T11:07:22;8.02;;;3.60;;
53875;SDS011;39789;53.216;5.624;2024-01-11T11:09:49;10.25;;;4.05;;
53875;SDS011;39789;53.216;5.624;2024-01-11T11:12:16;8.98;;;4.03;;
53875;SDS011;39789;53.216;5.624;2024-01-11T11:14:43;14.73;;;4.93;;
53875;SDS011;39789;53.216;5.624;2024-01-11T11:17:13;11.13;;;4.60;;
53875;SDS011;39789;53.216;5.624;2024-01-11T11:19:40;9.13;;;4.40;;
53875;SDS011;39789;53.216;5.624;2024-01-11T11:22:06;10.80;;;5.53;;
53875;SDS011;39789;53.216;5.624;2024-01-11T11:24:35;7.75;;;4.88;;
53875;SDS011;39789;53.216;5.624;2024-01-11T11:27:01;12.50;;;5.40;;
53875;SDS011;39789;53.216;5.624;2024-01-11T11:29:26;11.40;;;4.60;;
53875;SDS011;39789;53.216;5.624;2024-01-11T11:31:52;9.45;;;4.88;;
53875;SDS011;39789;53.216;5.624;2024-01-11T11:34:21;12.35;;;4.85;;
53875;SDS011;39789;53.216;5.624;2024-01-11T11:37:06;14.45;;;4.28;;
53875;SDS011;39789;53.216;5.624;2024-01-11T11:39:32;16.20;;;4.75;;
53875;SDS011;39789;53.216;5.624;2024-01-11T11:41:58;15.45;;;4.68;;
53875;SDS011;39789;53.216;5.624;2024-01-11T11:44:26;17.05;;;4.78;;
53875;SDS011;39789;53.216;5.624;2024-01-11T11:46:52;18.38;;;5.05;;
53875;SDS011;39789;53.216;5.624;2024-01-11T11:49:18;20.27;;;5.60;;
53875;SDS011;39789;53.216;5.624;2024-01-11T11:51:44;23.52;;;5.72;;
53875;SDS011;39789;53.216;5.624;2024-01-11T11:54:09;17.75;;;5.50;;
53875;SDS011;39789;53.216;5.624;2024-01-11T11:56:36;30.10;;;6.82;;
53875;SDS011;39789;53.216;5.624;2024-01-11T11:59:02;25.48;;;6.22;;
53875;SDS011;39789;53.216;5.624;2024-01-11T12:01:28;26.50;;;7.80;;
53875;SDS011;39789;53.216;5.624;2024-01-11T12:03:56;28.58;;;8.27;;
53875;SDS011;39789;53.216;5.624;2024-01-11T12:06:22;32.80;;;8.30;;
53875;SDS011;39789;53.216;5.624;2024-01-11T12:08:49;25.95;;;7.47;;
53875;SDS011;39789;53.216;5.624;2024-01-11T12:11:18;29.33;;;7.57;;
53875;SDS011;39789;53.216;5.624;2024-01-11T12:13:48;33.42;;;8.57;;
53875;SDS011;39789;53.216;5.624;2024-01-11T12:16:15;28.20;;;7.60;;
53875;SDS011;39789;53.216;5.624;2024-01-11T12:18:41;27.25;;;7.25;;
53875;SDS011;39789;53.216;5.624;2024-01-11T12:21:10;32.50;;;7.75;;
53875;SDS011;39789;53.216;5.624;2024-01-11T12:23:36;29.70;;;7.43;;
53875;SDS011;39789;53.216;5.624;2024-01-11T12:26:06;32.03;;;7.80;;
53875;SDS011;39789;53.216;5.624;2024-01-11T12:28:32;29.73;;;7.43;;
53875;SDS011;39789;53.216;5.624;2024-01-11T12:31:02;24.25;;;7.40;;
53875;SDS011;39789;53.216;5.624;2024-01-11T12:33:28;26.92;;;7.85;;
53875;SDS011;39789;53.216;5.624;2024-01-11T12:35:54;28.70;;;8.80;;
53875;SDS011;39789;53.216;5.624;2024-01-11T12:38:20;35.10;;;7.28;;
53875;SDS011;39789;53.216;5.624;2024-01-11T12:40:46;28.60;;;7.53;;
53875;SDS011;39789;53.216;5.624;2024-01-11T12:43:12;31.77;;;7.72;;
53875;SDS011;39789;53.216;5.624;2024-01-11T12:45:39;28.73;;;7.85;;
53875;SDS011;39789;53.216;5.624;2024-01-11T12:48:08;34.65;;;7.88;;
53875;SDS011;39789;53.216;5.624;2024-01-11T12:50:34;33.78;;;7.25;;
53875;SDS011;39789;53.216;5.624;2024-01-11T12:53:04;30.40;;;7.53;;
53875;SDS011;39789;53.216;5.624;2024-01-11T12:55:33;30.38;;;7.60;;
53875;SDS011;39789;53.216;5.624;2024-01-11T12:58:03;27.42;;;8.10;;
53875;SDS011;39789;53.216;5.624;2024-01-11T13:03:00;32.15;;;7.85;;
53875;SDS011;39789;53.216;5.624;2024-01-11T13:05:26;28.17;;;8.00;;
53875;SDS011;39789;53.216;5.624;2024-01-11T13:07:52;31.38;;;7.80;;
53875;SDS011;39789;53.216;5.624;2024-01-11T13:10:17;29.10;;;7.93;;
53875;SDS011;39789;53.216;5.624;2024-01-11T13:12:43;29.30;;;7.55;;
53875;SDS011;39789;53.216;5.624;2024-01-11T13:15:08;25.88;;;8.45;;
53875;SDS011;39789;53.216;5.624;2024-01-11T13:17:34;29.83;;;7.53;;
53875;SDS011;39789;53.216;5.624;2024-01-11T13:20:00;36.10;;;8.60;;
53875;SDS011;39789;53.216;5.624;2024-01-11T13:22:26;27.05;;;7.93;;
53875;SDS011;39789;53.216;5.624;2024-01-11T13:24:53;28.90;;;8.15;;
53875;SDS011;39789;53.216;5.624;2024-01-11T13:27:18;34.15;;;8.10;;
53875;SDS011;39789;53.216;5.624;2024-01-11T13:29:44;39.05;;;9.60;;
53875;SDS011;39789;53.216;5.624;2024-01-11T13:32:09;33.92;;;8.68;;
53875;SDS011;39789;53.216;5.624;2024-01-11T13:34:36;34.08;;;10.13;;
53875;SDS011;39789;53.216;5.624;2024-01-11T13:37:02;30.25;;;9.55;;
53875;SDS011;39789;53.216;5.624;2024-01-11T13:39:36;22.10;;;7.88;;
53875;SDS011;39789;53.216;5.624;2024-01-11T13:42:01;33.33;;;8.75;;
53875;SDS011;39789;53.216;5.624;2024-01-11T13:44:28;36.83;;;8.77;;
53875;SDS011;39789;53.216;5.624;2024-01-11T13:46:54;40.80;;;9.63;;
53875;SDS011;39789;53.216;5.624;2024-01-11T13:49:20;28.20;;;8.75;;
53875;SDS011;39789;53.216;5.624;2024-01-11T13:51:47;27.13;;;8.48;;
53875;SDS011;39789;53.216;5.624;2024-01-11T13:54:13;28.55;;;8.82;;
53875;SDS011;39789;53.216;5.624;2024-01-11T13:56:39;29.27;;;8.50;;
53875;SDS011;39789;53.216;5.624;2024-01-11T13:59:05;28.88;;;7.82;;
53875;SDS011;39789;53.216;5.624;2024-01-11T14:01:31;30.30;;;8.30;;
53875;SDS011;39789;53.216;5.624;2024-01-11T14:03:56;40.08;;;9.82;;
53875;SDS011;39789;53.216;5.624;2024-01-11T14:06:22;26.67;;;9.10;;
53875;SDS011;39789;53.216;5.624;2024-01-11T14:08:48;31.77;;;9.73;;
53875;SDS011;39789;53.216;5.624;2024-01-11T14:11:13;26.67;;;7.65;;
53875;SDS011;39789;53.216;5.624;2024-01-11T14:13:39;31.95;;;7.38;;
53875;SDS011;39789;53.216;5.624;2024-01-11T14:16:05;33.22;;;7.95;;
53875;SDS011;39789;53.216;5.624;2024-01-11T14:18:31;25.25;;;6.80;;
53875;SDS011;39789;53.216;5.624;2024-01-11T14:20:56;21.58;;;5.38;;
53875;SDS011;39789;53.216;5.624;2024-01-11T14:23:22;23.02;;;6.53;;